地図

経路データ

SID SEASON NUMBER BASIN SUBBASIN NAME ISO_TIME NATURE LAT LON WMO_WIND WMO_PRES WMO_AGENCY TRACK_TYPE DIST2LAND LANDFALL IFLAG USA_AGENCY USA_ATCF_ID USA_LAT USA_LON USA_RECORD USA_STATUS USA_WIND USA_PRES USA_SSHS USA_R34_NE USA_R34_SE USA_R34_SW USA_R34_NW USA_R50_NE USA_R50_SE USA_R50_SW USA_R50_NW USA_R64_NE USA_R64_SE USA_R64_SW USA_R64_NW USA_POCI USA_ROCI USA_RMW USA_EYE TOKYO_LAT TOKYO_LON TOKYO_GRADE TOKYO_WIND TOKYO_PRES TOKYO_R50_DIR TOKYO_R50_LONG TOKYO_R50_SHORT TOKYO_R30_DIR TOKYO_R30_LONG TOKYO_R30_SHORT TOKYO_LAND CMA_LAT CMA_LON CMA_CAT CMA_WIND CMA_PRES HKO_LAT HKO_LON HKO_CAT HKO_WIND HKO_PRES NEWDELHI_LAT NEWDELHI_LON NEWDELHI_GRADE NEWDELHI_WIND NEWDELHI_PRES NEWDELHI_CI NEWDELHI_DP NEWDELHI_POCI REUNION_LAT REUNION_LON REUNION_TYPE REUNION_WIND REUNION_PRES REUNION_TNUM REUNION_CI REUNION_RMW REUNION_R34_NE REUNION_R34_SE REUNION_R34_SW REUNION_R34_NW REUNION_R50_NE REUNION_R50_SE REUNION_R50_SW REUNION_R50_NW REUNION_R64_NE REUNION_R64_SE REUNION_R64_SW REUNION_R64_NW BOM_LAT BOM_LON BOM_TYPE BOM_WIND BOM_PRES BOM_TNUM BOM_CI BOM_RMW BOM_R34_NE BOM_R34_SE BOM_R34_SW BOM_R34_NW BOM_R50_NE BOM_R50_SE BOM_R50_SW BOM_R50_NW BOM_R64_NE BOM_R64_SE BOM_R64_SW BOM_R64_NW BOM_ROCI BOM_POCI BOM_EYE BOM_POS_METHOD BOM_PRES_METHOD NADI_LAT NADI_LON NADI_CAT NADI_WIND NADI_PRES WELLINGTON_LAT WELLINGTON_LON WELLINGTON_WIND WELLINGTON_PRES DS824_LAT DS824_LON DS824_STAGE DS824_WIND DS824_PRES TD9636_LAT TD9636_LON TD9636_STAGE TD9636_WIND TD9636_PRES TD9635_LAT TD9635_LON TD9635_WIND TD9635_PRES TD9635_ROCI NEUMANN_LAT NEUMANN_LON NEUMANN_CLASS NEUMANN_WIND NEUMANN_PRES MLC_LAT MLC_LON MLC_CLASS MLC_WIND MLC_PRES USA_GUST BOM_GUST BOM_GUST_PER REUNION_GUST REUNION_GUST_PER USA_SEAHGT USA_SEARAD_NE USA_SEARAD_SE USA_SEARAD_SW USA_SEARAD_NW STORM_SPEED STORM_DIR
1991166N10257 1991 30 EP MM BLANCA 1991-06-14 18:00:00 TS 10.2000 -103.000 25 1010 hurdat_epa main 810 810 O_____________ hurdat_epa EP021991 10.2000 -103.000 TD 25 1010 -1 5 257
1991166N10257 1991 30 EP MM BLANCA 1991-06-14 21:00:00 TS 10.1425 -103.250 main 835 835 P_____________ EP021991 10.1425 -103.250 TD 25 1010 -1 5 259
1991166N10257 1991 30 EP MM BLANCA 1991-06-15 00:00:00 TS 10.1000 -103.500 25 1010 hurdat_epa main 845 845 O_____________ hurdat_epa EP021991 10.1000 -103.500 TD 25 1010 -1 5 263
1991166N10257 1991 30 EP MM BLANCA 1991-06-15 03:00:00 TS 10.0850 -103.750 main 857 857 P_____________ EP021991 10.0850 -103.750 TD 25 1010 -1 5 270
1991166N10257 1991 30 EP MM BLANCA 1991-06-15 06:00:00 TS 10.1000 -104.000 25 1010 hurdat_epa main 864 864 O_____________ hurdat_epa EP021991 10.1000 -104.000 TD 25 1010 -1 5 277
1991166N10257 1991 30 EP MM BLANCA 1991-06-15 09:00:00 TS 10.1425 -104.250 main 872 866 P_____________ EP021991 10.1425 -104.250 TD 25 1010 -1 5 281
1991166N10257 1991 30 EP MM BLANCA 1991-06-15 12:00:00 TS 10.2000 -104.500 25 1010 hurdat_epa main 875 875 O_____________ hurdat_epa EP021991 10.2000 -104.500 TD 25 1010 -1 5 280
1991166N10257 1991 30 EP MM BLANCA 1991-06-15 15:00:00 TS 10.2274 -104.728 main 884 884 P_____________ EP021991 10.2274 -104.728 TD 25 1010 -1 5 281
1991166N10257 1991 30 EP MM BLANCA 1991-06-15 18:00:00 TS 10.3000 -105.000 25 1010 hurdat_epa main 889 884 O_____________ hurdat_epa EP021991 10.3000 -105.000 TD 25 1010 -1 7 291
1991166N10257 1991 30 EP MM BLANCA 1991-06-15 21:00:00 TS 10.4775 -105.377 main 891 881 P_____________ EP021991 10.4775 -105.377 TD 25 1010 -1 9 297
1991166N10257 1991 30 EP MM BLANCA 1991-06-16 00:00:00 TS 10.7000 -105.800 25 1010 hurdat_epa main 885 874 O_____________ hurdat_epa EP021991 10.7000 -105.800 TD 25 1010 -1 9 298
1991166N10257 1991 30 EP MM BLANCA 1991-06-16 03:00:00 TS 10.8999 -106.193 main 877 868 P_____________ EP021991 10.8999 -106.193 TD 25 1010 -1 9 297
1991166N10257 1991 30 EP MM BLANCA 1991-06-16 06:00:00 TS 11.1000 -106.600 25 1010 hurdat_epa main 872 864 O_____________ hurdat_epa EP021991 11.1000 -106.600 TD 25 1010 -1 9 296
1991166N10257 1991 30 EP MM BLANCA 1991-06-16 09:00:00 TS 11.2999 -107.035 main 869 868 P_____________ EP021991 11.2999 -107.035 TD 27 1009 -1 10 294
1991166N10257 1991 30 EP MM BLANCA 1991-06-16 12:00:00 TS 11.5000 -107.500 30 1009 hurdat_epa main 874 869 O_____________ hurdat_epa EP021991 11.5000 -107.500 TD 30 1009 -1 10 293
1991166N10257 1991 30 EP MM BLANCA 1991-06-16 15:00:00 TS 11.7000 -108.000 main 882 879 P_____________ EP021991 11.7000 -108.000 TD 30 1008 -1 11 292
1991166N10257 1991 30 EP MM BLANCA 1991-06-16 18:00:00 TS 11.9000 -108.500 30 1008 hurdat_epa main 895 892 O_____________ hurdat_epa EP021991 11.9000 -108.500 TD 30 1008 -1 10 294
1991166N10257 1991 30 EP MM BLANCA 1991-06-16 21:00:00 TS 12.1074 -108.950 main 910 902 P_____________ EP021991 12.1074 -108.950 TD 32 1006 -1 10 294
1991166N10257 1991 30 EP MM BLANCA 1991-06-17 00:00:00 TS 12.3000 -109.400 35 1005 hurdat_epa main 915 915 O_____________ hurdat_epa EP021991 12.3000 -109.400 TS 35 1005 0 10 291
1991166N10257 1991 30 EP MM BLANCA 1991-06-17 03:00:00 TS 12.4574 -109.893 main 927 927 P_____________ EP021991 12.4574 -109.893 TS 37 1004 0 10 287
1991166N10257 1991 30 EP MM BLANCA 1991-06-17 06:00:00 TS 12.6000 -110.400 40 1003 hurdat_epa main 950 950 O_____________ hurdat_epa EP021991 12.6000 -110.400 TS 40 1003 0 10 287
1991166N10257 1991 30 EP MM BLANCA 1991-06-17 09:00:00 TS 12.7574 -110.900 main 968 968 P_____________ EP021991 12.7574 -110.900 TS 40 1002 0 10 287
1991166N10257 1991 30 EP MM BLANCA 1991-06-17 12:00:00 TS 12.9000 -111.400 40 1002 hurdat_epa main 997 997 O_____________ hurdat_epa EP021991 12.9000 -111.400 TS 40 1002 0 10 284
1991166N10257 1991 30 EP MM BLANCA 1991-06-17 15:00:00 TS 13.0074 -111.900 main 1027 1027 P_____________ EP021991 13.0074 -111.900 TS 42 1001 0 10 282
1991166N10257 1991 30 EP MM BLANCA 1991-06-17 18:00:00 TS 13.1000 -112.400 45 1001 hurdat_epa main 1057 1057 O_____________ hurdat_epa EP021991 13.1000 -112.400 TS 45 1001 0 10 282
1991166N10257 1991 30 EP MM BLANCA 1991-06-17 21:00:00 TS 13.2074 -112.900 main 1088 1088 P_____________ EP021991 13.2074 -112.900 TS 45 1000 0 10 282
1991166N10257 1991 30 EP MM BLANCA 1991-06-18 00:00:00 TS 13.3000 -113.400 45 1000 hurdat_epa main 1121 1121 O_____________ hurdat_epa EP021991 13.3000 -113.400 TS 45 1000 0 10 279
1991166N10257 1991 30 EP MM BLANCA 1991-06-18 03:00:00 TS 13.3649 -113.900 main 1139 1139 P_____________ EP021991 13.3649 -113.900 TS 45 1000 0 10 276
1991166N10257 1991 30 EP MM BLANCA 1991-06-18 06:00:00 TS 13.4000 -114.400 45 1000 hurdat_epa main 1159 1159 O_____________ hurdat_epa EP021991 13.4000 -114.400 TS 45 1000 0 10 273
1991166N10257 1991 30 EP MM BLANCA 1991-06-18 09:00:00 TS 13.4074 -114.900 main 1181 1181 P_____________ EP021991 13.4074 -114.900 TS 45 1000 0 10 270
1991166N10257 1991 30 EP MM BLANCA 1991-06-18 12:00:00 TS 13.4000 -115.400 45 1000 hurdat_epa main 1205 1205 O_____________ hurdat_epa EP021991 13.4000 -115.400 TS 45 1000 0 10 270
1991166N10257 1991 30 EP MM BLANCA 1991-06-18 15:00:00 TS 13.4074 -115.900 main 1231 1231 P_____________ EP021991 13.4074 -115.900 TS 45 1000 0 10 270
1991166N10257 1991 30 EP MM BLANCA 1991-06-18 18:00:00 TS 13.4000 -116.400 45 1000 hurdat_epa main 1259 1259 O_____________ hurdat_epa EP021991 13.4000 -116.400 TS 45 1000 0 10 267
1991166N10257 1991 30 EP MM BLANCA 1991-06-18 21:00:00 TS 13.3649 -116.900 main 1288 1288 P_____________ EP021991 13.3649 -116.900 TS 45 1000 0 10 264
1991166N10257 1991 30 EP MM BLANCA 1991-06-19 00:00:00 TS 13.3000 -117.400 45 1000 hurdat_epa main 1327 1327 O_____________ hurdat_epa EP021991 13.3000 -117.400 TS 45 1000 0 10 261
1991166N10257 1991 30 EP MM BLANCA 1991-06-19 03:00:00 TS 13.2074 -117.900 main 1368 1368 P_____________ EP021991 13.2074 -117.900 TS 45 999 0 10 258
1991166N10257 1991 30 EP MM BLANCA 1991-06-19 06:00:00 TS 13.1000 -118.400 45 999 hurdat_epa main 1410 1410 O_____________ hurdat_epa EP021991 13.1000 -118.400 TS 45 999 0 10 258
1991166N10257 1991 30 EP MM BLANCA 1991-06-19 09:00:00 TS 12.9999 -118.900 main 1452 1452 P_____________ EP021991 12.9999 -118.900 TS 45 998 0 10 258
1991166N10257 1991 30 EP MM BLANCA 1991-06-19 12:00:00 TS 12.9000 -119.400 45 998 hurdat_epa main 1495 1495 O_____________ hurdat_epa EP021991 12.9000 -119.400 TS 45 998 0 10 258
1991166N10257 1991 30 EP MM BLANCA 1991-06-19 15:00:00 TS 12.7924 -119.893 main 1539 1539 P_____________ EP021991 12.7924 -119.893 TS 47 997 0 10 258
1991166N10257 1991 30 EP MM BLANCA 1991-06-19 18:00:00 TS 12.7000 -120.400 50 996 hurdat_epa main 1584 1584 O_____________ hurdat_epa EP021991 12.7000 -120.400 TS 50 996 0 10 261
1991166N10257 1991 30 EP MM BLANCA 1991-06-19 21:00:00 TS 12.6274 -120.943 main 1629 1629 P_____________ EP021991 12.6274 -120.943 TS 52 995 0 11 265
1991166N10257 1991 30 EP MM BLANCA 1991-06-20 00:00:00 TS 12.6000 -121.500 55 994 hurdat_epa main 1675 1675 O_____________ hurdat_epa EP021991 12.6000 -121.500 TS 55 994 0 11 270
1991166N10257 1991 30 EP MM BLANCA 1991-06-20 03:00:00 TS 12.6199 -122.058 main 1713 1713 P_____________ EP021991 12.6199 -122.058 TS 52 995 0 11 275
1991166N10257 1991 30 EP MM BLANCA 1991-06-20 06:00:00 TS 12.7000 -122.600 50 996 hurdat_epa main 1737 1737 O_____________ hurdat_epa EP021991 12.7000 -122.600 TS 50 996 0 10 281
1991166N10257 1991 30 EP MM BLANCA 1991-06-20 09:00:00 TS 12.8274 -123.108 main 1762 1760 P_____________ EP021991 12.8274 -123.108 TS 47 998 0 10 287
1991166N10257 1991 30 EP MM BLANCA 1991-06-20 12:00:00 TS 13.0000 -123.600 45 1000 hurdat_epa main 1780 1779 O_____________ hurdat_epa EP021991 13.0000 -123.600 TS 45 1000 0 10 291
1991166N10257 1991 30 EP MM BLANCA 1991-06-20 15:00:00 TS 13.1999 -124.100 main 1799 1799 P_____________ EP021991 13.1999 -124.100 TS 42 1001 0 11 292
1991166N10257 1991 30 EP MM BLANCA 1991-06-20 18:00:00 TS 13.4000 -124.600 40 1003 hurdat_epa main 1820 1820 O_____________ hurdat_epa EP021991 13.4000 -124.600 TS 40 1003 0 10 290
1991166N10257 1991 30 EP MM BLANCA 1991-06-20 21:00:00 TS 13.5574 -125.093 main 1842 1842 P_____________ EP021991 13.5574 -125.093 TS 37 1004 0 10 287
1991166N10257 1991 30 EP MM BLANCA 1991-06-21 00:00:00 TS 13.7000 -125.600 35 1006 hurdat_epa main 1873 1873 O_____________ hurdat_epa EP021991 13.7000 -125.600 TS 35 1006 0 11 286
1991166N10257 1991 30 EP MM BLANCA 1991-06-21 03:00:00 TS 13.8575 -126.150 main 1898 1898 P_____________ EP021991 13.8575 -126.150 TS 35 1007 0 11 286
1991166N10257 1991 30 EP MM BLANCA 1991-06-21 06:00:00 TS 14.0000 -126.700 35 1008 hurdat_epa main 1939 1939 O_____________ hurdat_epa EP021991 14.0000 -126.700 TS 35 1008 0 10 284
1991166N10257 1991 30 EP MM BLANCA 1991-06-21 09:00:00 TS 14.1147 -127.185 main 1973 1973 P_____________ EP021991 14.1147 -127.185 TS 32 1008 -1 10 282
1991166N10257 1991 30 EP MM BLANCA 1991-06-21 12:00:00 TS 14.2000 -127.700 30 1009 hurdat_epa main 2001 2001 O_____________ hurdat_epa EP021991 14.2000 -127.700 TD 30 1009 -1 11 277
1991166N10257 1991 30 EP MM BLANCA 1991-06-21 15:00:00 TS 14.2499 -128.313 main 2042 2033 P_____________ EP021991 14.2499 -128.313 TD 30 1009 -1 13 275
1991166N10257 1991 30 EP MM BLANCA 1991-06-21 18:00:00 TS 14.3000 -129.000 30 1009 hurdat_epa main 2083 2083 O_____________ hurdat_epa EP021991 14.3000 -129.000 TD 30 1009 -1 14 276
1991166N10257 1991 30 EP MM BLANCA 1991-06-21 21:00:00 TS 14.3880 -129.737 main 2126 2126 P_____________ EP021991 14.3880 -129.737 TD 27 1009 -1 15 278
1991166N10257 1991 30 EP MM BLANCA 1991-06-22 00:00:00 TS 14.5000 -130.500 25 1009 hurdat_epa main 2178 O_____________ hurdat_epa EP021991 14.5000 -130.500 TD 25 1009 -1 15 279

IBTrACS Databaseについて

本データベースは、米国NOAAが公開する1842年以降の世界の熱帯低気圧のベストトラックデータアーカイブInternational Best Track Archive for Climate Stewardship (IBTrACS)を、ウェブで閲覧しやすい形式に変換したものです。

最終更新日:2021-10-21